Time;durP1;ratioP1;P1;durP2;ratioP2;P2;SDS_P1;SDS_P2;PMS_P1;PMS_P2;Temp;Humidity;BMP_temperature;BMP_pressure;BME280_temperature;BME280_humidity;BME280_pressure;Samples;Min_cycle;Max_cycle;Signal;HPM_P1;HPM_P2
2020/12/22 00:02:03;;;;;;;23.75;5.45;;;;;;;15.18;72.27;100383.00;5087608;28;20486;-76
2020/12/22 00:04:28;;;;;;;25.25;5.43;;;;;;;15.49;71.53;100380.97;5068116;28;20066;-78
2020/12/22 00:06:57;;;;;;;28.95;6.25;;;;;;;15.29;72.06;100370.38;5089352;28;20120;-77
2020/12/22 00:09:23;;;;;;;31.40;5.88;;;;;;;15.38;71.86;100382.66;5085159;28;20042;-77
2020/12/22 00:11:48;;;;;;;35.95;6.32;;;;;;;15.35;72.24;100382.28;5086757;28;20040;-75
2020/12/22 00:14:14;;;;;;;21.58;5.10;;;;;;;15.40;72.09;100385.97;5062703;28;20552;-78
2020/12/22 00:16:39;;;;;;;22.75;5.55;;;;;;;15.17;73.10;100369.56;5087556;28;20036;-79
2020/12/22 00:19:05;;;;;;;15.43;4.53;;;;;;;15.35;72.39;100376.78;5084288;28;20028;-78
2020/12/22 00:21:32;;;;;;;29.15;4.78;;;;;;;15.52;71.65;100371.41;5086040;28;20107;-77
2020/12/22 00:23:57;;;;;;;24.60;5.57;;;;;;;15.53;71.53;100381.31;5083871;28;20032;-77
2020/12/22 00:26:23;;;;;;;25.05;5.43;;;;;;;15.35;71.96;100374.06;5088236;28;20036;-79
2020/12/22 00:28:48;;;;;;;30.42;5.80;;;;;;;15.41;71.90;100378.56;5083566;28;20040;-78
2020/12/22 00:31:13;;;;;;;34.90;6.40;;;;;;;15.65;71.33;100387.59;5084604;28;20036;-78
2020/12/22 00:33:39;;;;;;;40.08;6.95;;;;;;;15.50;71.65;100374.41;5084469;28;20048;-76
2020/12/22 00:36:08;;;;;;;33.63;6.38;;;;;;;15.29;72.36;100386.81;5084220;28;20047;-78
2020/12/22 00:38:33;;;;;;;28.45;4.78;;;;;;;15.46;72.01;100388.81;5090219;28;20610;-78
2020/12/22 00:40:59;;;;;;;27.88;5.60;;;;;;;15.61;71.18;100400.13;5084415;28;20035;-78
2020/12/22 00:43:24;;;;;;;18.77;3.92;;;;;;;15.68;70.70;100409.06;5088742;28;20490;-76
2020/12/22 00:45:49;;;;;;;16.10;4.15;;;;;;;15.51;71.47;100397.19;5068553;28;20474;-77
2020/12/22 00:48:15;;;;;;;15.07;3.63;;;;;;;15.59;70.86;100391.31;5085272;28;20039;-78
2020/12/22 00:50:40;;;;;;;7.95;2.65;;;;;;;15.45;70.97;100382.50;5087822;28;20036;-79
2020/12/22 00:53:06;;;;;;;12.13;2.55;;;;;;;15.43;71.29;100389.28;5049045;28;20039;-77
2020/12/22 00:55:31;;;;;;;2.38;1.48;;;;;;;15.55;70.91;100368.19;5086273;28;20031;-76
2020/12/22 00:57:56;;;;;;;2.58;1.75;;;;;;;15.53;70.19;100375.81;5069377;28;20145;-79
2020/12/22 01:00:22;;;;;;;5.35;1.50;;;;;;;15.44;71.29;100380.00;5055077;28;20585;-76
2020/12/22 01:02:47;;;;;;;6.55;1.90;;;;;;;15.56;70.59;100389.88;5052880;28;20035;-80
2020/12/22 01:05:12;;;;;;;4.30;2.50;;;;;;;15.28;71.62;100362.41;5087524;28;20139;-77
2020/12/22 01:07:38;;;;;;;4.05;2.13;;;;;;;15.44;71.14;100374.53;5069442;28;20051;-79
2020/12/22 01:10:04;;;;;;;6.22;3.70;;;;;;;15.34;71.35;100381.44;5069608;28;20085;-79
2020/12/22 01:12:29;;;;;;;5.45;2.75;;;;;;;15.53;70.68;100376.66;5084783;28;20547;-78
2020/12/22 01:14:55;;;;;;;14.93;3.10;;;;;;;15.54;70.71;100386.56;5086394;28;20028;-78
2020/12/22 01:17:20;;;;;;;9.63;4.07;;;;;;;15.32;71.36;100386.34;5083747;28;20746;-79
2020/12/22 01:19:46;;;;;;;9.65;3.83;;;;;;;15.55;71.04;100392.84;5060658;28;20051;-76
2020/12/22 01:22:11;;;;;;;11.38;4.65;;;;;;;15.30;71.78;100380.25;5065473;28;20542;-77
2020/12/22 01:24:37;;;;;;;11.45;3.40;;;;;;;15.61;70.86;100380.94;5065502;28;20420;-78
2020/12/22 01:27:02;;;;;;;10.52;3.65;;;;;;;15.20;71.76;100367.16;5093962;28;20390;-77
2020/12/22 01:29:28;;;;;;;9.30;4.80;;;;;;;15.57;71.18;100379.75;5079418;28;20401;-79
2020/12/22 01:31:54;;;;;;;14.10;3.40;;;;;;;15.53;70.61;100378.56;5028934;28;20043;-76
2020/12/22 01:34:20;;;;;;;15.85;4.95;;;;;;;15.39;72.14;100383.47;5083015;28;20589;-76
2020/12/22 01:36:45;;;;;;;14.57;5.15;;;;;;;15.64;71.00;100402.38;5085641;28;20032;-76
2020/12/22 01:39:11;;;;;;;16.05;5.03;;;;;;;15.57;71.06;100412.66;5083215;28;20039;-76
2020/12/22 01:41:37;;;;;;;13.57;4.93;;;;;;;15.48;71.14;100411.34;5077261;28;20031;-77
2020/12/22 01:44:14;;;;;;;15.65;4.05;;;;;;;15.48;71.06;100394.91;5081523;28;20024;-78
2020/12/22 01:46:40;;;;;;;21.02;4.90;;;;;;;15.73;70.83;100398.19;5060490;28;20406;-76
2020/12/22 01:49:14;;;;;;;17.45;4.65;;;;;;;15.65;70.56;100398.56;5081722;28;20349;-77
2020/12/22 01:51:42;;;;;;;9.05;4.10;;;;;;;15.35;71.43;100401.47;5083118;28;20454;-76
2020/12/22 01:54:08;;;;;;;7.93;3.47;;;;;;;15.33;71.93;100390.72;5084380;28;20474;-76
2020/12/22 01:56:36;;;;;;;8.55;2.75;;;;;;;15.40;71.64;100399.69;5061066;28;20070;-75
2020/12/22 01:59:01;;;;;;;4.55;2.65;;;;;;;15.23;72.24;100404.22;5084809;28;20040;-77
2020/12/22 02:01:32;;;;;;;8.68;3.22;;;;;;;15.56;71.27;100406.31;5048174;28;20089;-79
2020/12/22 02:03:59;;;;;;;16.30;3.78;;;;;;;15.35;71.93;100404.19;5084909;28;20390;-77
2020/12/22 02:06:27;;;;;;;12.15;4.38;;;;;;;15.47;71.83;100420.63;5062500;28;20743;-77
2020/12/22 02:08:52;;;;;;;14.98;5.40;;;;;;;15.48;71.91;100411.34;5085650;28;20035;-75
2020/12/22 02:11:28;;;;;;;10.13;4.25;;;;;;;15.62;71.32;100414.69;5082280;28;20031;-76
2020/12/22 02:13:55;;;;;;;13.55;5.45;;;;;;;15.54;71.63;100435.88;5063235;28;20040;-78
2020/12/22 02:16:21;;;;;;;13.45;5.70;;;;;;;15.80;70.78;100422.78;5083068;28;20043;-77
2020/12/22 02:18:47;;;;;;;12.18;4.45;;;;;;;15.37;72.10;100424.81;5045246;28;20047;-77
2020/12/22 02:21:13;;;;;;;15.00;4.57;;;;;;;15.48;71.92;100419.56;5085588;28;20053;-76
2020/12/22 02:23:39;;;;;;;17.23;4.43;;;;;;;15.47;71.71;100424.19;5083516;28;20032;-76
2020/12/22 02:26:04;;;;;;;22.33;6.63;;;;;;;15.55;71.43;100426.59;5080914;28;20554;-77
2020/12/22 02:28:30;;;;;;;22.98;5.95;;;;;;;15.53;71.71;100434.22;5083595;28;20039;-77
2020/12/22 02:30:55;;;;;;;26.90;6.18;;;;;;;15.51;71.74;100436.38;5067675;28;20093;-77
2020/12/22 02:33:20;;;;;;;26.92;6.13;;;;;;;15.34;72.39;100433.50;5068090;28;20071;-77
2020/12/22 02:35:46;;;;;;;29.50;8.57;;;;;;;15.50;71.60;100439.34;5086609;28;20032;-76
2020/12/22 02:38:11;;;;;;;31.83;8.25;;;;;;;15.30;72.09;100443.28;5084262;28;20059;-78
2020/12/22 02:40:37;;;;;;;33.80;7.55;;;;;;;15.54;71.69;100441.38;5085200;28;20547;-77
2020/12/22 02:43:11;;;;;;;39.35;8.52;;;;;;;15.63;71.54;100441.84;5084292;28;20810;-75
2020/12/22 02:45:41;;;;;;;42.63;8.68;;;;;;;15.53;71.75;100449.84;5086273;28;20482;-77
2020/12/22 02:48:09;;;;;;;50.75;9.90;;;;;;;15.64;71.86;100443.50;5081962;28;20374;-77
2020/12/22 02:50:35;;;;;;;35.67;8.38;;;;;;;15.53;71.66;100449.84;5082194;28;20016;-77
2020/12/22 02:53:00;;;;;;;57.05;11.20;;;;;;;15.44;72.17;100445.78;5079542;28;20043;-75
2020/12/22 02:55:26;;;;;;;48.83;10.00;;;;;;;15.71;71.73;100454.34;5085177;28;20063;-76
2020/12/22 02:57:51;;;;;;;47.50;11.02;;;;;;;15.60;71.77;100450.56;5085292;28;20116;-76
2020/12/22 03:00:17;;;;;;;48.97;12.85;;;;;;;15.66;71.93;100444.09;5064959;28;20028;-76
2020/12/22 03:02:42;;;;;;;56.47;10.95;;;;;;;15.57;71.73;100446.38;5087675;28;20093;-79
2020/12/22 03:05:07;;;;;;;53.30;10.48;;;;;;;15.55;72.22;100442.19;5083474;28;20828;-75
2020/12/22 03:07:33;;;;;;;42.72;11.15;;;;;;;15.78;71.50;100459.75;5064328;28;20040;-77
2020/12/22 03:09:58;;;;;;;56.05;9.90;;;;;;;15.76;71.45;100449.81;5083960;28;20036;-77
2020/12/22 03:12:24;;;;;;;48.22;8.82;;;;;;;15.66;72.19;100460.56;5069203;28;20085;-77
2020/12/22 03:14:49;;;;;;;51.17;8.40;;;;;;;15.73;71.35;100450.28;5091034;28;20082;-77
2020/12/22 03:17:15;;;;;;;44.50;9.02;;;;;;;15.61;71.64;100459.59;5071650;28;20417;-76
2020/12/22 03:19:40;;;;;;;40.95;9.73;;;;;;;15.89;70.91;100467.94;5088243;28;20036;-75
2020/12/22 03:22:06;;;;;;;49.83;8.73;;;;;;;15.56;71.90;100452.09;5069339;28;20600;-77
2020/12/22 03:24:32;;;;;;;54.83;9.20;;;;;;;15.74;71.71;100454.69;5069493;28;20067;-75
2020/12/22 03:26:57;;;;;;;55.58;10.00;;;;;;;15.39;71.94;100449.25;5053012;28;20130;-77
2020/12/22 03:29:23;;;;;;;41.55;8.55;;;;;;;15.70;71.38;100449.94;5066763;28;20537;-76
2020/12/22 03:31:48;;;;;;;46.15;9.93;;;;;;;15.72;70.89;100470.56;5069365;28;20054;-76
2020/12/22 03:34:13;;;;;;;47.47;9.70;;;;;;;15.38;72.02;100470.34;5086742;28;20146;-75
2020/12/22 03:36:39;;;;;;;45.45;9.43;;;;;;;15.72;71.11;100469.72;5082223;28;20032;-75
2020/12/22 03:39:04;;;;;;;40.33;8.20;;;;;;;15.77;70.70;100467.13;5077407;28;20473;-77
2020/12/22 03:41:30;;;;;;;43.30;8.75;;;;;;;15.63;71.39;100465.66;5083746;28;20113;-77
2020/12/22 03:43:56;;;;;;;47.08;8.73;;;;;;;15.79;70.37;100473.22;5086315;28;20039;-75
2020/12/22 03:46:22;;;;;;;41.70;7.82;;;;;;;15.91;70.59;100484.13;5085131;28;20040;-76
2020/12/22 03:48:47;;;;;;;49.22;9.05;;;;;;;15.87;70.16;100493.94;5087173;28;20031;-76
2020/12/22 03:51:13;;;;;;;42.60;7.65;;;;;;;15.80;70.58;100485.84;5087406;28;20432;-76
2020/12/22 03:53:38;;;;;;;46.33;8.68;;;;;;;15.80;70.86;100482.25;5066345;28;20036;-77
2020/12/22 03:56:06;;;;;;;40.25;8.15;;;;;;;15.73;70.84;100488.66;5068781;28;20028;-78
2020/12/22 03:58:31;;;;;;;43.25;9.05;;;;;;;15.64;71.22;100476.41;5084279;28;20309;-75
2020/12/22 04:00:57;;;;;;;44.10;7.13;;;;;;;15.81;70.61;100486.69;5078690;28;20127;-78
2020/12/22 04:03:22;;;;;;;45.72;8.23;;;;;;;15.62;70.37;100475.81;5086318;28;20075;-77
2020/12/22 04:05:48;;;;;;;40.40;7.30;;;;;;;15.95;69.93;100484.50;5049453;28;20545;-76
2020/12/22 04:08:13;;;;;;;34.78;7.63;;;;;;;15.75;70.48;100485.69;5086087;28;20521;-77
2020/12/22 04:10:38;;;;;;;37.20;7.95;;;;;;;15.62;71.04;100492.25;5087881;28;20028;-76
2020/12/22 04:13:04;;;;;;;38.17;8.13;;;;;;;15.80;70.18;100487.75;5085924;28;20028;-75
2020/12/22 04:15:29;;;;;;;42.03;8.85;;;;;;;15.57;70.87;100497.63;5085172;28;20575;-76
2020/12/22 04:17:55;;;;;;;43.58;6.65;;;;;;;15.50;70.83;100511.44;5087350;28;20040;-78
2020/12/22 04:20:20;;;;;;;43.97;8.63;;;;;;;15.58;70.48;100502.88;5066879;28;20040;-76
2020/12/22 04:22:46;;;;;;;41.35;8.40;;;;;;;15.57;70.70;100506.69;5066592;28;20047;-76
2020/12/22 04:25:11;;;;;;;34.65;8.02;;;;;;;15.78;70.20;100520.06;5067808;28;20043;-76
2020/12/22 04:27:37;;;;;;;39.55;8.52;;;;;;;15.55;70.59;100511.56;5084441;28;20031;-76
2020/12/22 04:30:03;;;;;;;43.80;8.68;;;;;;;15.57;70.59;100512.16;5049852;28;20055;-77
2020/12/22 04:32:29;;;;;;;43.92;8.52;;;;;;;15.56;70.65;100515.97;5079916;28;20064;-76
2020/12/22 04:34:55;;;;;;;49.15;8.90;;;;;;;15.64;70.17;100523.00;5085234;28;20036;-78
2020/12/22 04:37:20;;;;;;;45.13;9.25;;;;;;;15.50;70.88;100538.00;5063317;28;20044;-76
2020/12/22 04:39:46;;;;;;;39.75;8.95;;;;;;;15.71;70.07;100537.44;5085559;28;20042;-77
2020/12/22 04:42:13;;;;;;;51.10;8.02;;;;;;;15.60;70.16;100532.78;5085177;28;20032;-77
2020/12/22 04:44:40;;;;;;;38.92;7.85;;;;;;;15.81;69.95;100550.56;5079625;28;20028;-78
2020/12/22 04:47:08;;;;;;;42.58;9.75;;;;;;;15.73;69.75;100537.19;5082661;28;20030;-77
2020/12/22 04:49:37;;;;;;;42.22;8.98;;;;;;;15.75;69.90;100543.25;5085850;28;20044;-76
2020/12/22 04:52:03;;;;;;;34.78;7.95;;;;;;;15.91;69.26;100547.22;5083383;28;20032;-76
2020/12/22 04:54:29;;;;;;;50.55;10.13;;;;;;;15.80;69.50;100554.41;5064763;28;20115;-77
2020/12/22 04:56:56;;;;;;;42.75;8.55;;;;;;;15.77;69.43;100563.09;5083533;28;20040;-77
2020/12/22 04:59:21;;;;;;;43.10;7.95;;;;;;;15.69;69.38;100556.03;5085148;28;20040;-77
2020/12/22 05:01:48;;;;;;;39.38;8.13;;;;;;;15.70;69.58;100546.72;5084089;28;20390;-76
2020/12/22 05:04:14;;;;;;;43.60;8.00;;;;;;;15.46;69.85;100545.88;5086336;28;20030;-77
2020/12/22 05:06:40;;;;;;;41.35;7.55;;;;;;;15.70;69.69;100557.69;5086352;28;20028;-76
2020/12/22 05:09:06;;;;;;;44.42;7.20;;;;;;;15.50;70.11;100554.47;5081839;28;20028;-76
2020/12/22 05:11:35;;;;;;;39.33;6.85;;;;;;;15.78;69.40;100569.41;5084663;28;20052;-76
2020/12/22 05:14:01;;;;;;;51.42;9.25;;;;;;;15.64;69.66;100558.63;5080894;28;20039;-77
2020/12/22 05:16:27;;;;;;;43.33;7.68;;;;;;;15.63;69.85;100570.69;5086361;28;20036;-77
2020/12/22 05:18:55;;;;;;;45.08;8.23;;;;;;;15.46;70.52;100559.59;5081870;28;20452;-77
2020/12/22 05:21:22;;;;;;;47.95;9.63;;;;;;;15.54;70.06;100561.16;5077547;28;20032;-77
2020/12/22 05:23:51;;;;;;;42.67;8.02;;;;;;;15.37;70.80;100572.78;5084134;28;20024;-76
2020/12/22 05:26:23;;;;;;;40.97;7.95;;;;;;;15.31;71.07;100581.13;5084523;28;20053;-78
2020/12/22 05:28:49;;;;;;;39.63;8.25;;;;;;;15.68;69.86;100584.50;5084519;28;20028;-77
2020/12/22 05:31:15;;;;;;;38.42;7.82;;;;;;;15.54;70.28;100602.25;5063135;28;20466;-77
2020/12/22 05:33:44;;;;;;;45.53;9.68;;;;;;;15.43;70.92;100592.09;5083419;28;20044;-76
2020/12/22 05:36:10;;;;;;;38.60;6.47;;;;;;;15.40;70.06;100588.75;5062063;28;20323;-76
2020/12/22 05:38:37;;;;;;;39.83;7.38;;;;;;;15.57;70.05;100582.59;5046331;28;20043;-77
2020/12/22 05:41:06;;;;;;;45.45;9.20;;;;;;;15.37;70.31;100578.28;5046942;28;20043;-76
2020/12/22 05:43:42;;;;;;;39.65;7.00;;;;;;;15.52;70.03;100590.69;5086012;28;20097;-79
2020/12/22 05:46:10;;;;;;;39.47;9.02;;;;;;;15.47;70.39;100582.34;5066008;28;20036;-77
2020/12/22 05:48:37;;;;;;;41.20;9.02;;;;;;;15.34;70.84;100588.88;5064643;28;20470;-76
2020/12/22 05:51:06;;;;;;;45.38;8.77;;;;;;;15.33;70.79;100598.97;5083223;28;20118;-78
2020/12/22 05:53:32;;;;;;;43.30;9.43;;;;;;;15.65;69.50;100595.94;5063118;28;20051;-77
2020/12/22 05:56:16;;;;;;;37.67;7.28;;;;;;;15.47;69.69;100598.78;5084598;28;20485;-76
2020/12/22 05:58:42;;;;;;;50.45;8.73;;;;;;;15.31;69.94;100590.16;5083785;28;20071;-79
2020/12/22 06:01:11;;;;;;;40.53;8.38;;;;;;;15.37;69.70;100591.97;5068049;28;20458;-78
2020/12/22 06:03:37;;;;;;;44.25;7.82;;;;;;;15.53;69.37;100609.63;5081691;28;20398;-77
2020/12/22 06:06:03;;;;;;;42.30;8.63;;;;;;;15.16;70.58;100609.75;5083829;28;20264;-76
2020/12/22 06:08:28;;;;;;;44.05;9.02;;;;;;;15.37;69.65;100622.09;5064826;28;20036;-76
2020/12/22 06:10:54;;;;;;;42.65;9.38;;;;;;;15.22;70.28;100608.84;5065611;28;20138;-77
2020/12/22 06:13:21;;;;;;;41.35;9.25;;;;;;;15.20;70.66;100616.47;5066493;28;20588;-78
2020/12/22 06:15:46;;;;;;;41.33;9.27;;;;;;;15.28;70.42;100631.72;5085477;28;20427;-77
2020/12/22 06:18:13;;;;;;;35.55;8.07;;;;;;;15.41;70.38;100633.44;5082945;28;20028;-76
2020/12/22 06:20:38;;;;;;;51.53;8.80;;;;;;;15.29;70.20;100629.81;5080051;28;20032;-76
2020/12/22 06:23:06;;;;;;;44.90;10.35;;;;;;;15.28;70.16;100626.25;5065875;28;20040;-77
2020/12/22 06:25:33;;;;;;;48.83;10.40;;;;;;;15.26;70.52;100642.09;5082782;28;20059;-79
2020/12/22 06:27:59;;;;;;;54.60;8.60;;;;;;;15.14;70.67;100635.75;5082747;28;20028;-78
2020/12/22 06:30:44;;;;;;;44.20;8.60;;;;;;;15.22;70.34;100641.72;5081072;28;20122;-77
2020/12/22 06:33:27;;;;;;;40.38;9.70;;;;;;;15.47;69.44;100648.13;5046315;28;20051;-76
2020/12/22 06:36:13;;;;;;;42.80;8.85;;;;;;;15.34;69.81;100655.47;5083572;28;20047;-75
2020/12/22 06:38:51;;;;;;;48.75;8.80;;;;;;;15.30;69.93;100665.19;5082487;28;20039;-78
2020/12/22 06:41:43;;;;;;;42.55;7.55;;;;;;;15.26;70.56;100666.75;5085231;28;20043;-76
2020/12/22 06:44:14;;;;;;;47.05;7.50;;;;;;;15.40;70.38;100670.97;5072296;28;20044;-77
2020/12/22 06:46:40;;;;;;;;;;;;;;;15.39;70.44;100663.81;5087208;28;20027;-76
2020/12/22 06:49:06;;;;;;;46.95;7.43;;;;;;;15.29;70.35;100669.03;5082843;28;19962;-78
2020/12/22 06:51:34;;;;;;;35.05;8.05;;;;;;;15.39;70.62;100690.38;5085366;28;20063;-78
2020/12/22 06:54:01;;;;;;;41.97;7.95;;;;;;;15.14;70.97;100685.88;5069512;28;20363;-78
2020/12/22 06:56:50;;;;;;;47.38;9.98;;;;;;;15.07;71.20;100673.31;5084349;28;20032;-77
2020/12/22 06:59:37;;;;;;;51.63;9.00;;;;;;;15.35;70.37;100673.59;5087887;28;20062;-78
2020/12/22 07:02:02;;;;;;;42.22;8.88;;;;;;;15.17;71.31;100688.16;5068892;28;20037;-76
2020/12/22 07:04:38;;;;;;;55.05;9.30;;;;;;;15.23;70.99;100697.34;5087008;28;20509;-76
2020/12/22 07:07:03;;;;;;;45.13;7.82;;;;;;;15.46;70.46;100687.53;5082405;28;20020;-77
2020/12/22 07:09:30;;;;;;;50.42;9.60;;;;;;;15.28;70.79;100711.19;5087087;28;20551;-77
2020/12/22 07:12:08;;;;;;;43.72;8.55;;;;;;;15.57;70.13;100697.72;5087161;28;20028;-76
2020/12/22 07:14:36;;;;;;;48.75;9.65;;;;;;;15.28;70.69;100710.38;5084593;28;20043;-76
2020/12/22 07:17:03;;;;;;;43.92;8.35;;;;;;;15.31;70.62;100718.13;5087474;28;20055;-78
2020/12/22 07:19:31;;;;;;;47.83;10.80;;;;;;;15.15;71.08;100727.78;5087987;28;20082;-78
2020/12/22 07:22:00;;;;;;;39.83;9.63;;;;;;;15.56;69.92;100743.47;5086403;28;20056;-76
2020/12/22 07:24:27;;;;;;;41.63;10.43;;;;;;;15.34;70.73;100737.66;5065796;28;20461;-77
2020/12/22 07:26:53;;;;;;;62.13;11.85;;;;;;;15.28;70.63;100740.50;5068915;28;20086;-78
2020/12/22 07:29:19;;;;;;;48.55;10.32;;;;;;;15.52;70.00;100755.13;5065983;28;20020;-78
2020/12/22 07:31:46;;;;;;;43.78;11.23;;;;;;;15.46;70.20;100756.91;5067738;28;20028;-75
2020/12/22 07:34:11;;;;;;;51.30;11.80;;;;;;;15.47;70.54;100757.75;5085289;28;20347;-78
2020/12/22 07:36:37;;;;;;;51.47;12.60;;;;;;;15.27;71.29;100783.47;5069694;28;20475;-78
2020/12/22 07:39:16;;;;;;;35.03;9.73;;;;;;;15.53;70.84;100785.06;5051281;28;20081;-76
2020/12/22 07:41:43;;;;;;;37.50;9.90;;;;;;;15.80;69.90;100795.72;5072538;28;20064;-76
2020/12/22 07:44:19;;;;;;;49.15;9.30;;;;;;;15.58;69.89;100803.56;5065408;28;20032;-78
2020/12/22 07:46:47;;;;;;;39.60;7.50;;;;;;;15.79;69.45;100821.47;5085066;28;20108;-76
2020/12/22 07:49:14;;;;;;;44.33;8.45;;;;;;;15.95;68.44;100824.63;5066098;28;20060;-77
2020/12/22 07:51:47;;;;;;;39.35;8.48;;;;;;;15.73;68.81;100836.88;5085249;28;20031;-76
2020/12/22 07:54:13;;;;;;;37.00;7.75;;;;;;;15.29;69.62;100843.53;5066523;28;20264;-78
2020/12/22 07:56:41;;;;;;;40.03;8.60;;;;;;;15.78;68.07;100855.41;5083441;28;20320;-77
2020/12/22 07:59:08;;;;;;;36.78;6.25;;;;;;;15.74;68.35;100866.00;5086422;28;20020;-75
2020/12/22 08:01:44;;;;;;;38.15;8.20;;;;;;;15.36;68.72;100869.81;5083843;28;20405;-77
2020/12/22 08:04:30;;;;;;;33.50;5.75;;;;;;;15.55;68.31;100881.63;5076767;28;20051;-76
2020/12/22 08:07:08;;;;;;;24.65;5.45;;;;;;;15.46;67.97;100887.63;5062848;28;20042;-77
2020/12/22 08:09:36;;;;;;;32.22;5.47;;;;;;;15.44;67.67;100895.25;5076141;28;20024;-79
2020/12/22 08:12:06;;;;;;;27.00;5.30;;;;;;;15.14;68.73;100899.53;5085395;28;20382;-74
2020/12/22 08:14:37;;;;;;;26.35;5.15;;;;;;;14.91;68.71;100902.09;5066846;28;20040;-76
2020/12/22 08:17:16;;;;;;;19.92;4.50;;;;;;;15.12;67.49;100914.53;5083684;28;20020;-76
2020/12/22 08:19:42;;;;;;;26.88;4.60;;;;;;;15.13;67.48;100936.22;5067613;28;20024;-76
2020/12/22 08:22:08;;;;;;;22.17;4.38;;;;;;;14.98;67.50;100942.03;5067605;28;20506;-77
2020/12/22 08:24:34;;;;;;;18.27;5.47;;;;;;;14.91;66.87;100951.38;5085324;28;20043;-77
2020/12/22 08:27:00;;;;;;;16.10;4.28;;;;;;;14.88;66.93;100957.28;5079055;28;20048;-78
2020/12/22 08:29:28;;;;;;;20.65;2.88;;;;;;;14.86;66.62;100973.94;5067150;28;20138;-78
2020/12/22 08:32:01;;;;;;;16.80;3.00;;;;;;;14.57;67.54;100984.41;5066093;28;20024;-75
2020/12/22 08:34:28;;;;;;;8.88;2.63;;;;;;;14.55;67.31;100982.94;5079989;28;20048;-76
2020/12/22 08:36:54;;;;;;;13.82;2.95;;;;;;;14.52;66.96;100981.50;5082639;28;20028;-75
2020/12/22 08:39:22;;;;;;;9.40;3.85;;;;;;;14.39;67.15;100993.34;5083669;28;20034;-79
2020/12/22 08:41:55;;;;;;;16.42;3.00;;;;;;;14.53;67.04;100996.00;5081960;28;20044;-79
2020/12/22 08:44:22;;;;;;;11.48;4.03;;;;;;;14.55;66.48;100992.00;5063572;28;20036;-78
2020/12/22 08:46:48;;;;;;;7.38;3.53;;;;;;;14.63;65.92;100999.16;5080761;28;20500;-77
2020/12/22 08:49:21;;;;;;;9.23;3.75;;;;;;;14.61;65.98;101007.59;5063741;28;20043;-77
2020/12/22 08:51:48;;;;;;;7.07;3.53;;;;;;;14.66;65.64;101009.66;5083275;28;20424;-77
2020/12/22 08:54:14;;;;;;;28.65;5.70;;;;;;;14.67;65.68;101022.28;5062914;28;20039;-77
2020/12/22 08:56:40;;;;;;;17.58;4.32;;;;;;;14.68;65.83;101023.97;5065423;28;20029;-77
2020/12/22 08:59:10;;;;;;;10.52;3.92;;;;;;;14.56;66.10;101036.63;5081586;28;20498;-79
2020/12/22 09:01:42;;;;;;;16.50;4.82;;;;;;;14.54;66.08;101036.84;5063476;28;20436;-78
2020/12/22 09:04:08;;;;;;;12.02;4.57;;;;;;;14.48;66.26;101041.28;5081641;28;20032;-78
2020/12/22 09:06:42;;;;;;;13.15;3.90;;;;;;;14.56;66.09;101058.53;5063349;28;20040;-78
2020/12/22 09:09:22;;;;;;;17.27;4.18;;;;;;;14.56;66.07;101064.81;5081715;28;20103;-76
2020/12/22 09:11:48;;;;;;;19.75;5.15;;;;;;;14.48;66.30;101071.38;5079511;28;20615;-77
2020/12/22 09:14:18;;;;;;;19.63;3.58;;;;;;;14.62;66.23;101080.41;5048047;28;20028;-77
2020/12/22 09:16:49;;;;;;;15.80;4.97;;;;;;;14.61;66.10;101086.97;5080654;28;20056;-77
2020/12/22 09:19:22;;;;;;;18.73;4.07;;;;;;;14.69;65.79;101085.88;5081627;28;20036;-76
2020/12/22 09:21:57;;;;;;;11.52;3.67;;;;;;;14.70;65.77;101092.19;5080266;28;20034;-77
2020/12/22 09:24:22;;;;;;;15.23;4.63;;;;;;;14.70;65.68;101095.75;5083727;28;20802;-76
2020/12/22 09:26:58;;;;;;;17.38;4.32;;;;;;;14.72;65.54;101096.41;5062879;28;20032;-76
2020/12/22 09:29:24;;;;;;;11.52;4.40;;;;;;;14.70;65.29;101114.09;5080557;28;20067;-76
2020/12/22 09:31:50;;;;;;;13.88;4.85;;;;;;;14.71;65.38;101110.31;5082416;28;20493;-76
2020/12/22 09:34:15;;;;;;;12.63;4.70;;;;;;;14.81;65.05;101127.09;5082064;28;20040;-76
2020/12/22 09:36:41;;;;;;;18.25;4.70;;;;;;;14.81;65.07;101135.31;5062096;28;20032;-76
2020/12/22 09:39:06;;;;;;;15.00;4.07;;;;;;;14.83;65.10;101136.78;5078788;28;20889;-76
2020/12/22 09:41:32;;;;;;;15.98;3.75;;;;;;;14.74;65.15;101137.25;5081682;28;20043;-78
2020/12/22 09:43:58;;;;;;;18.23;4.70;;;;;;;14.75;64.96;101147.97;5081110;28;20040;-78
2020/12/22 09:46:23;;;;;;;14.43;3.58;;;;;;;14.77;64.70;101145.03;5081210;28;20035;-78
2020/12/22 09:48:48;;;;;;;20.35;4.80;;;;;;;14.73;65.22;101163.75;5047780;28;20032;-79
2020/12/22 09:51:15;;;;;;;16.23;4.00;;;;;;;14.85;64.92;101174.91;5079848;28;20748;-78
2020/12/22 09:53:40;;;;;;;9.52;4.10;;;;;;;14.66;65.12;101169.28;5082880;28;20114;-79
2020/12/22 09:56:05;;;;;;;14.40;4.13;;;;;;;14.85;65.04;101181.19;5089210;28;20103;-79
2020/12/22 09:58:31;;;;;;;8.63;3.35;;;;;;;14.82;64.81;101181.63;5082316;28;20028;-78
2020/12/22 10:00:56;;;;;;;12.48;3.33;;;;;;;14.78;64.85;101187.75;5063889;28;20132;-79
2020/12/22 10:03:22;;;;;;;15.90;4.03;;;;;;;14.76;64.94;101195.34;5063628;28;20031;-78
2020/12/22 10:05:48;;;;;;;17.52;3.60;;;;;;;14.64;65.31;101203.38;5047489;28;20555;-79
2020/12/22 10:08:14;;;;;;;8.05;3.20;;;;;;;14.63;65.06;101193.50;5084576;28;20020;-78
2020/12/22 10:10:39;;;;;;;7.55;3.20;;;;;;;14.77;64.69;101218.94;5080444;28;20056;-78
2020/12/22 10:13:04;;;;;;;10.50;3.03;;;;;;;14.60;65.11;101208.47;5068093;28;20448;-79
2020/12/22 10:15:30;;;;;;;8.35;2.35;;;;;;;14.62;64.57;101214.53;5082415;28;20036;-79
2020/12/22 10:17:55;;;;;;;13.55;2.63;;;;;;;14.66;64.08;101231.41;5064482;28;20039;-77
2020/12/22 10:20:21;;;;;;;12.60;2.55;;;;;;;14.33;64.58;101224.91;5079478;28;20028;-80
2020/12/22 10:22:46;;;;;;;5.65;2.28;;;;;;;14.18;64.99;101228.88;5062583;28;20170;-82
2020/12/22 10:25:12;;;;;;;9.93;2.80;;;;;;;14.32;64.54;101247.81;5083237;28;20039;-79
2020/12/22 10:27:37;;;;;;;4.50;2.38;;;;;;;14.40;64.04;101244.03;5064254;28;20051;-80
2020/12/22 10:30:04;;;;;;;4.90;3.45;;;;;;;14.45;64.12;101254.34;5083796;28;20039;-80
2020/12/22 10:32:29;;;;;;;8.52;2.65;;;;;;;14.47;63.46;101249.50;5081350;28;20115;-80
2020/12/22 10:34:55;;;;;;;9.20;2.85;;;;;;;14.46;63.72;101262.34;5064859;28;20048;-78
2020/12/22 10:37:21;;;;;;;7.60;3.10;;;;;;;14.52;63.57;101271.63;5081263;28;20500;-79
2020/12/22 10:39:51;;;;;;;8.73;3.17;;;;;;;14.49;63.58;101261.09;5081481;28;20094;-78
2020/12/22 10:42:19;;;;;;;16.73;5.43;;;;;;;14.53;63.31;101251.38;5081284;28;20035;-78
2020/12/22 10:44:45;;;;;;;6.53;2.92;;;;;;;14.46;63.47;101250.56;5057909;28;20036;-79
2020/12/22 10:47:10;;;;;;;9.93;3.25;;;;;;;14.58;63.46;101258.94;5065826;28;20761;-78
2020/12/22 10:49:36;;;;;;;30.27;8.02;;;;;;;14.62;63.00;101254.78;5080646;28;20042;-80
2020/12/22 10:52:01;;;;;;;5.75;2.85;;;;;;;14.47;63.23;101246.75;5081483;28;20036;-79
2020/12/22 10:54:27;;;;;;;11.90;3.05;;;;;;;14.66;63.11;101272.47;5079487;28;20035;-78
2020/12/22 10:56:52;;;;;;;5.82;2.88;;;;;;;14.61;63.05;101264.03;5076002;28;20036;-79
2020/12/22 10:59:17;;;;;;;11.27;3.03;;;;;;;14.67;62.71;101264.03;5079242;28;20467;-78
2020/12/22 11:01:43;;;;;;;5.90;2.50;;;;;;;14.38;63.38;101267.19;5061885;28;20047;-79
2020/12/22 11:04:09;;;;;;;9.95;2.85;;;;;;;14.51;62.91;101270.75;5077705;28;20047;-81
2020/12/22 11:09:05;;;;;;;6.63;3.33;;;;;;;14.65;62.71;101268.03;5088582;28;20031;-80
2020/12/22 11:11:31;;;;;;;10.40;4.03;;;;;;;14.47;62.87;101282.34;5082887;28;20505;-78
2020/12/22 11:13:56;;;;;;;11.43;4.95;;;;;;;14.66;62.45;101287.00;5082738;28;20084;-79
2020/12/22 11:16:27;;;;;;;10.00;3.05;;;;;;;14.65;62.45;101279.81;5080872;28;20502;-78
2020/12/22 11:18:53;;;;;;;;;;;;;;;14.60;62.93;101297.91;5080836;28;20032;-80
2020/12/22 11:21:20;;;;;;;23.30;3.97;;;;;;;14.66;62.51;101300.69;5080758;28;19927;-78
2020/12/22 11:23:46;;;;;;;19.77;4.43;;;;;;;14.57;62.54;101287.41;5081796;28;20032;-78